createdAt,value
2023-05-03T00:00:17.219Z,99.90
2023-05-03T00:02:48.723Z,99.90
2023-05-03T00:05:18.622Z,99.90
2023-05-03T00:07:47.682Z,99.90
2023-05-03T00:10:16.470Z,99.90
2023-05-03T00:12:50.789Z,99.90
2023-05-03T00:15:19.014Z,99.90
2023-05-03T00:17:47.373Z,99.90
2023-05-03T00:20:15.933Z,99.90
2023-05-03T00:22:45.895Z,99.90
2023-05-03T00:25:15.244Z,99.90
2023-05-03T00:27:46.484Z,99.90
2023-05-03T00:30:15.118Z,99.90
2023-05-03T00:32:43.450Z,99.90
2023-05-03T00:35:11.801Z,99.90
2023-05-03T00:37:40.396Z,99.90
2023-05-03T00:40:11.760Z,99.90
2023-05-03T00:42:39.936Z,99.90
2023-05-03T00:45:09.513Z,99.90
2023-05-03T00:47:38.283Z,99.90
2023-05-03T00:50:11.908Z,99.90
2023-05-03T00:52:41.699Z,99.90
2023-05-03T00:55:12.398Z,99.90
2023-05-03T00:57:40.916Z,99.90
2023-05-03T01:00:10.785Z,99.90
2023-05-03T01:02:39.682Z,99.90
2023-05-03T01:05:09.138Z,99.90
2023-05-03T01:07:46.665Z,99.90
2023-05-03T01:10:27.897Z,99.90
2023-05-03T01:13:01.638Z,99.90
2023-05-03T01:15:42.516Z,99.90
2023-05-03T01:18:16.025Z,99.90
2023-05-03T01:20:48.024Z,99.90
2023-05-03T01:23:29.517Z,99.90
2023-05-03T01:25:59.204Z,99.90
2023-05-03T01:28:27.481Z,99.90
2023-05-03T01:30:57.182Z,99.90
2023-05-03T01:33:36.533Z,99.90
2023-05-03T01:36:12.880Z,99.90
2023-05-03T01:38:42.292Z,99.90
2023-05-03T01:41:13.627Z,99.90
2023-05-03T01:43:42.847Z,99.90
2023-05-03T01:46:11.420Z,99.90
2023-05-03T01:48:40.045Z,99.90
2023-05-03T01:51:08.295Z,99.90
2023-05-03T01:53:37.646Z,99.90
2023-05-03T01:56:08.411Z,99.90
2023-05-03T01:58:38.210Z,99.90
2023-05-03T02:01:08.026Z,99.90
2023-05-03T02:03:36.494Z,99.90
2023-05-03T02:06:05.278Z,99.90
2023-05-03T02:08:33.514Z,99.90
2023-05-03T02:11:01.725Z,99.90
2023-05-03T02:13:29.945Z,99.90
2023-05-03T02:16:00.049Z,99.90
2023-05-03T02:18:31.363Z,99.90
2023-05-03T02:20:59.674Z,99.90
2023-05-03T02:23:28.096Z,99.90
2023-05-03T02:25:56.604Z,99.90
2023-05-03T02:28:25.084Z,99.90
2023-05-03T02:30:54.041Z,99.90
2023-05-03T02:33:24.317Z,99.90
2023-05-03T02:35:52.545Z,99.90
2023-05-03T02:38:20.749Z,99.90
2023-05-03T02:40:48.856Z,99.90
2023-05-03T02:43:17.034Z,99.90
2023-05-03T02:45:45.930Z,99.90
2023-05-03T02:48:14.152Z,99.90
2023-05-03T02:50:43.683Z,99.90
2023-05-03T02:53:11.949Z,99.90
2023-05-03T02:55:40.711Z,99.90
2023-05-03T02:58:10.052Z,99.90
2023-05-03T03:00:38.376Z,99.90
2023-05-03T03:03:06.712Z,99.90
2023-05-03T03:05:35.169Z,99.90
2023-05-03T03:08:05.667Z,99.90
2023-05-03T03:10:34.016Z,99.90
2023-05-03T03:13:02.894Z,99.90
2023-05-03T03:15:31.481Z,99.90
2023-05-03T03:17:59.685Z,99.90
2023-05-03T03:20:28.260Z,99.90
2023-05-03T03:22:56.436Z,99.90
2023-05-03T03:25:26.264Z,99.90
2023-05-03T03:27:54.363Z,99.90
2023-05-03T03:30:22.596Z,99.90
2023-05-03T03:32:50.755Z,99.90
2023-05-03T03:35:19.881Z,99.90
2023-05-03T03:37:48.040Z,99.90
2023-05-03T03:40:16.438Z,99.90
2023-05-03T03:42:46.177Z,99.90
2023-05-03T03:45:15.010Z,99.90
2023-05-03T03:47:43.171Z,99.90
2023-05-03T03:50:12.188Z,99.90
2023-05-03T03:52:40.461Z,99.90
2023-05-03T03:55:12.717Z,99.90
2023-05-03T03:57:41.413Z,99.90
2023-05-03T04:00:12.781Z,99.90
2023-05-03T04:02:41.048Z,99.90
2023-05-03T04:05:09.746Z,99.90
2023-05-03T04:07:37.974Z,99.90
2023-05-03T04:10:07.011Z,99.90
2023-05-03T04:12:35.163Z,99.90
2023-05-03T04:15:03.596Z,99.90
2023-05-03T04:17:34.949Z,99.90
2023-05-03T04:20:05.074Z,99.90
2023-05-03T04:22:33.919Z,99.90
2023-05-03T04:25:02.089Z,99.90
2023-05-03T04:27:30.312Z,99.90
2023-05-03T04:29:59.941Z,99.90
2023-05-03T04:32:28.629Z,99.90
2023-05-03T04:35:01.247Z,99.90
2023-05-03T04:37:30.104Z,99.90
2023-05-03T04:39:58.613Z,99.90
2023-05-03T04:42:27.018Z,99.90
2023-05-03T04:44:55.522Z,99.90
2023-05-03T04:47:25.496Z,99.90
2023-05-03T04:49:56.793Z,99.90
2023-05-03T04:52:27.447Z,99.90
2023-05-03T04:54:56.381Z,99.90
2023-05-03T04:57:24.727Z,99.90
2023-05-03T04:59:54.182Z,99.90
2023-05-03T05:02:23.034Z,99.90
2023-05-03T05:04:51.442Z,99.90
2023-05-03T05:07:19.658Z,99.90
2023-05-03T05:09:49.360Z,99.90
2023-05-03T05:12:17.764Z,99.90
2023-05-03T05:14:46.267Z,99.90
2023-05-03T05:17:14.764Z,99.90
2023-05-03T05:19:43.081Z,99.90
2023-05-03T05:22:11.376Z,99.90
2023-05-03T05:24:39.717Z,99.90
2023-05-03T05:27:09.277Z,99.90
2023-05-03T05:29:40.786Z,99.90
2023-05-03T05:32:09.105Z,99.90
2023-05-03T05:34:44.957Z,99.90
2023-05-03T05:37:13.875Z,99.90
2023-05-03T05:39:42.170Z,99.90
2023-05-03T05:42:12.381Z,99.90
2023-05-03T05:44:41.228Z,99.90
2023-05-03T05:47:10.065Z,99.90
2023-05-03T05:49:38.882Z,99.90
2023-05-03T05:52:07.837Z,99.90
2023-05-03T05:54:36.466Z,99.90
2023-05-03T05:57:04.862Z,99.90
2023-05-03T05:59:34.961Z,99.90
2023-05-03T06:02:03.340Z,99.90
2023-05-03T06:04:31.862Z,99.90
2023-05-03T06:07:00.129Z,99.90
2023-05-03T06:09:31.145Z,99.90
2023-05-03T06:11:59.404Z,99.90
2023-05-03T06:14:27.704Z,99.90
2023-05-03T06:16:57.394Z,99.90
2023-05-03T06:19:25.679Z,99.90
2023-05-03T06:21:54.023Z,99.90
2023-05-03T06:24:22.372Z,99.90
2023-05-03T06:26:51.383Z,99.90
2023-05-03T06:29:19.764Z,99.90
2023-05-03T06:31:48.387Z,99.90
2023-05-03T06:34:21.679Z,99.90
2023-05-03T06:36:50.010Z,99.90
2023-05-03T06:39:18.423Z,99.90
2023-05-03T06:41:46.715Z,99.90
2023-05-03T06:44:15.128Z,99.90
2023-05-03T06:46:43.517Z,99.90
2023-05-03T06:49:11.882Z,99.90
2023-05-03T06:51:42.366Z,99.90
2023-05-03T06:54:10.791Z,99.90
2023-05-03T06:56:39.105Z,99.90
2023-05-03T06:59:08.588Z,99.90
2023-05-03T07:01:36.944Z,99.90
2023-05-03T07:04:05.894Z,99.90
2023-05-03T07:06:44.378Z,99.90
2023-05-03T07:09:41.441Z,99.90
2023-05-03T07:12:12.035Z,99.90
2023-05-03T07:14:40.888Z,99.90
2023-05-03T07:17:09.466Z,99.90
2023-05-03T07:19:38.358Z,99.90
2023-05-03T07:22:06.644Z,99.90
2023-05-03T07:24:36.758Z,99.90
2023-05-03T07:27:05.220Z,99.90
2023-05-03T07:29:33.750Z,99.90
2023-05-03T07:32:02.462Z,99.90
2023-05-03T07:34:32.782Z,99.90
2023-05-03T07:37:01.099Z,99.90
2023-05-03T07:39:29.288Z,99.90
2023-05-03T07:41:58.947Z,99.90
2023-05-03T07:44:27.205Z,99.90
2023-05-03T07:46:55.636Z,99.90
2023-05-03T07:49:23.875Z,99.90
2023-05-03T07:51:52.517Z,99.90
2023-05-03T07:54:20.849Z,99.90
2023-05-03T07:56:49.785Z,99.90
2023-05-03T07:59:19.520Z,99.90
2023-05-03T08:01:48.063Z,99.90
2023-05-03T08:04:16.720Z,99.90
2023-05-03T08:06:45.462Z,99.90
2023-05-03T08:09:14.226Z,99.90
2023-05-03T08:11:44.188Z,99.90
2023-05-03T08:14:13.041Z,99.90
2023-05-03T08:16:42.854Z,99.90
2023-05-03T08:19:11.097Z,99.90
2023-05-03T08:21:39.291Z,99.90
2023-05-03T08:24:08.449Z,99.90
2023-05-03T08:26:37.715Z,99.90
2023-05-03T08:29:06.002Z,99.90
2023-05-03T08:31:35.280Z,99.90
2023-05-03T08:34:05.166Z,99.90
2023-05-03T08:36:33.626Z,99.90
2023-05-03T08:39:03.790Z,99.90
2023-05-03T08:41:32.829Z,99.90
2023-05-03T08:44:04.169Z,99.90
2023-05-03T08:46:32.738Z,99.90
2023-05-03T08:49:01.991Z,99.90
2023-05-03T08:51:32.126Z,99.90
2023-05-03T08:54:01.695Z,99.90
2023-05-03T08:56:34.493Z,99.90
2023-05-03T08:59:07.911Z,99.90
2023-05-03T09:01:37.763Z,99.90
2023-05-03T09:04:06.643Z,99.90
2023-05-03T09:06:37.214Z,99.90
2023-05-03T09:09:07.601Z,99.90
2023-05-03T09:11:37.605Z,99.90
2023-05-03T09:14:13.989Z,99.90
2023-05-03T09:16:44.826Z,99.90
2023-05-03T09:19:14.700Z,99.90
2023-05-03T09:21:47.043Z,99.90
2023-05-03T09:24:17.585Z,99.90
2023-05-03T09:26:47.119Z,99.90
2023-05-03T09:29:29.867Z,99.90
2023-05-03T09:32:02.081Z,99.90
2023-05-03T09:34:31.652Z,99.90
2023-05-03T09:37:01.572Z,99.90
2023-05-03T09:39:29.779Z,99.90
2023-05-03T09:41:58.070Z,99.90
2023-05-03T09:44:42.930Z,99.90
2023-05-03T09:47:11.810Z,99.90
2023-05-03T09:49:40.745Z,98.90
2023-05-03T09:52:11.253Z,97.60
2023-05-03T09:54:40.953Z,97.80
2023-05-03T09:57:10.361Z,98.20
2023-05-03T09:59:40.160Z,93.70
2023-05-03T10:02:09.059Z,96.20
2023-05-03T10:04:43.453Z,96.80
2023-05-03T10:07:18.847Z,99.30
2023-05-03T10:09:48.881Z,97.70
2023-05-03T10:12:17.841Z,96.00
2023-05-03T10:14:47.575Z,96.40
2023-05-03T10:17:31.986Z,96.10
2023-05-03T10:20:21.313Z,94.50
2023-05-03T10:23:10.948Z,94.60
2023-05-03T10:25:40.589Z,93.40
2023-05-03T10:28:09.633Z,94.60
2023-05-03T10:30:38.880Z,92.30
2023-05-03T10:33:34.883Z,93.70
2023-05-03T10:36:07.592Z,91.90
2023-05-03T10:38:38.609Z,92.20
2023-05-03T10:41:07.249Z,91.40
2023-05-03T10:43:46.880Z,92.10
2023-05-03T10:46:36.489Z,91.30
2023-05-03T10:49:19.567Z,91.80
2023-05-03T10:51:47.888Z,91.50
2023-05-03T10:54:19.571Z,90.30
2023-05-03T10:56:56.644Z,86.00
2023-05-03T10:59:25.914Z,90.30
2023-05-03T11:01:54.620Z,89.40
2023-05-03T11:04:35.156Z,90.20
2023-05-03T11:07:04.563Z,87.10
2023-05-03T11:09:35.831Z,82.10
2023-05-03T11:12:08.622Z,85.50
2023-05-03T11:14:37.441Z,83.20
2023-05-03T11:17:05.930Z,84.20
2023-05-03T11:19:35.293Z,88.20
2023-05-03T11:22:03.524Z,84.80
2023-05-03T11:24:32.074Z,86.40
2023-05-03T11:27:08.241Z,84.40
2023-05-03T11:29:38.023Z,82.80
2023-05-03T11:32:10.595Z,81.50
2023-05-03T11:34:40.684Z,83.00
2023-05-03T11:37:10.927Z,82.00
2023-05-03T11:39:39.435Z,84.00
2023-05-03T11:42:09.923Z,79.60
2023-05-03T11:44:38.676Z,83.30
2023-05-03T11:47:07.976Z,79.10
2023-05-03T11:49:36.517Z,87.20
2023-05-03T11:52:05.146Z,89.00
2023-05-03T11:54:33.613Z,91.30
2023-05-03T11:57:12.282Z,90.40
2023-05-03T11:59:42.722Z,84.40
2023-05-03T12:02:13.943Z,89.80
2023-05-03T12:04:46.269Z,85.50
2023-05-03T12:07:18.744Z,82.70
2023-05-03T12:10:01.239Z,86.30
2023-05-03T12:12:37.278Z,87.40
2023-05-03T12:15:15.571Z,83.90
2023-05-03T12:17:48.997Z,86.60
2023-05-03T12:22:52.629Z,85.10
2023-05-03T12:25:26.084Z,85.10
2023-05-03T12:28:15.479Z,84.50
2023-05-03T12:30:48.212Z,85.50
2023-05-03T12:33:21.651Z,82.80
2023-05-03T12:35:53.320Z,82.40
2023-05-03T12:38:24.191Z,89.20
2023-05-03T12:40:54.723Z,90.20
2023-05-03T12:43:23.336Z,83.60
2023-05-03T12:46:16.533Z,89.50
2023-05-03T12:48:46.117Z,86.50
2023-05-03T12:53:48.019Z,90.90
2023-05-03T12:56:17.346Z,89.30
2023-05-03T13:02:18.190Z,91.60
2023-05-03T13:06:45.205Z,93.10
2023-05-03T13:09:21.689Z,93.40
2023-05-03T13:11:55.646Z,93.30
2023-05-03T13:14:24.687Z,97.10
2023-05-03T13:16:54.362Z,95.70
2023-05-03T13:19:22.583Z,96.30
2023-05-03T13:21:50.988Z,93.70
2023-05-03T13:24:19.240Z,94.20
2023-05-03T13:26:48.082Z,94.60
2023-05-03T13:29:16.446Z,94.80
2023-05-03T13:31:44.747Z,96.20
2023-05-03T13:34:14.550Z,94.90
2023-05-03T13:36:42.871Z,95.90
2023-05-03T13:39:11.318Z,96.70
2023-05-03T13:41:42.230Z,96.40
2023-05-03T13:44:11.725Z,95.40
2023-05-03T13:46:41.508Z,95.20
2023-05-03T13:49:09.998Z,95.70
2023-05-03T13:51:39.886Z,94.40
2023-05-03T13:54:08.637Z,93.50
2023-05-03T13:56:38.021Z,94.20
2023-05-03T13:59:09.241Z,94.10
2023-05-03T14:01:43.115Z,92.80
2023-05-03T14:04:12.572Z,90.90
2023-05-03T14:06:42.749Z,92.90
2023-05-03T14:09:11.851Z,91.60
2023-05-03T14:11:41.610Z,90.90
2023-05-03T14:14:10.094Z,93.00
2023-05-03T14:16:41.403Z,92.10
2023-05-03T14:19:11.770Z,95.50
2023-05-03T14:21:42.988Z,93.70
2023-05-03T14:24:11.613Z,91.50
2023-05-03T14:26:39.866Z,91.30
2023-05-03T14:29:08.463Z,93.20
2023-05-03T14:31:36.947Z,91.50
2023-05-03T14:34:05.335Z,93.20
2023-05-03T14:36:38.779Z,92.10
2023-05-03T14:39:09.146Z,93.20
2023-05-03T14:41:39.262Z,93.20
2023-05-03T14:44:07.828Z,92.80
2023-05-03T14:46:36.655Z,92.90
2023-05-03T14:49:05.168Z,94.70
2023-05-03T14:51:33.777Z,95.20
2023-05-03T14:54:02.211Z,95.00
2023-05-03T14:56:32.787Z,95.50
2023-05-03T14:59:02.032Z,94.90
2023-05-03T15:01:30.312Z,93.90
2023-05-03T15:03:58.891Z,97.30
2023-05-03T15:06:28.760Z,97.80
2023-05-03T15:08:58.246Z,99.90
2023-05-03T15:11:27.616Z,99.90
2023-05-03T15:13:57.516Z,99.90
2023-05-03T15:16:25.987Z,99.90
2023-05-03T15:18:54.692Z,99.90
2023-05-03T15:21:23.793Z,99.70
2023-05-03T15:23:54.073Z,99.90
2023-05-03T15:26:24.437Z,99.90
2023-05-03T15:28:53.061Z,99.90
2023-05-03T15:31:23.558Z,99.90
2023-05-03T15:33:52.202Z,99.90
2023-05-03T15:36:23.591Z,99.90
2023-05-03T15:38:52.000Z,99.90
2023-05-03T15:41:20.752Z,99.90
2023-05-03T15:43:49.418Z,99.90
2023-05-03T15:46:18.028Z,99.90
2023-05-03T15:48:48.227Z,99.90
2023-05-03T15:51:16.585Z,99.90
2023-05-03T15:53:44.785Z,99.90
2023-05-03T15:56:13.385Z,99.90
2023-05-03T15:58:41.956Z,99.90
2023-05-03T16:01:10.718Z,99.90
2023-05-03T16:03:39.162Z,99.90
2023-05-03T16:06:09.477Z,99.90
2023-05-03T16:08:37.894Z,99.90
2023-05-03T16:11:06.707Z,99.90
2023-05-03T16:13:35.120Z,99.90
2023-05-03T16:16:03.381Z,99.90
2023-05-03T16:18:31.997Z,99.90
2023-05-03T16:21:01.383Z,99.90
2023-05-03T16:23:31.024Z,99.90
2023-05-03T16:25:59.308Z,99.90
2023-05-03T16:28:27.834Z,99.90
2023-05-03T16:30:56.585Z,99.90
2023-05-03T16:33:24.813Z,99.90
2023-05-03T16:35:53.135Z,99.90
2023-05-03T16:38:21.652Z,99.90
2023-05-03T16:40:51.289Z,99.90
2023-05-03T16:43:19.597Z,99.90
2023-05-03T16:45:57.412Z,99.90
2023-05-03T16:48:28.919Z,99.90
2023-05-03T16:50:57.405Z,99.90
2023-05-03T16:53:26.080Z,99.90
2023-05-03T16:55:56.587Z,99.90
2023-05-03T16:58:24.923Z,99.90
2023-05-03T17:00:53.543Z,99.90
2023-05-03T17:03:22.234Z,99.90
2023-05-03T17:05:50.681Z,99.90
2023-05-03T17:08:18.957Z,99.90
2023-05-03T17:10:47.166Z,99.90
2023-05-03T17:13:17.345Z,99.90
2023-05-03T17:15:45.756Z,99.90
2023-05-03T17:18:15.018Z,99.90
2023-05-03T17:20:43.342Z,99.90
2023-05-03T17:23:11.730Z,99.90
2023-05-03T17:25:39.983Z,99.90
2023-05-03T17:28:08.577Z,99.90
2023-05-03T17:30:39.239Z,99.90
2023-05-03T17:33:07.785Z,99.90
2023-05-03T17:35:36.006Z,99.90
2023-05-03T17:38:05.354Z,99.90
2023-05-03T17:40:33.875Z,99.90
2023-05-03T17:43:02.454Z,99.90
2023-05-03T17:45:30.727Z,99.90
2023-05-03T17:48:00.386Z,99.90
2023-05-03T17:50:28.645Z,99.90
2023-05-03T17:52:57.467Z,99.90
2023-05-03T17:55:26.108Z,99.90
2023-05-03T17:57:54.435Z,99.90
2023-05-03T18:00:23.107Z,99.90
2023-05-03T18:02:52.110Z,99.90
2023-05-03T18:05:22.221Z,99.90
2023-05-03T18:07:50.763Z,99.90
2023-05-03T18:10:19.240Z,99.90
2023-05-03T18:12:47.673Z,99.90
2023-05-03T18:15:16.517Z,99.90
2023-05-03T18:17:45.108Z,99.90
2023-05-03T18:20:14.715Z,99.90
2023-05-03T18:22:44.391Z,99.90
2023-05-03T18:25:12.712Z,99.90
2023-05-03T18:27:40.905Z,99.90
2023-05-03T18:30:10.594Z,99.90
2023-05-03T18:32:38.869Z,99.90
2023-05-03T18:35:07.929Z,99.90
2023-05-03T18:37:38.872Z,99.90
2023-05-03T18:40:10.264Z,99.90
2023-05-03T18:42:38.452Z,99.90
2023-05-03T18:45:07.374Z,99.90
2023-05-03T18:47:35.962Z,99.90
2023-05-03T18:50:05.072Z,99.90
2023-05-03T18:52:33.967Z,99.90
2023-05-03T18:55:02.490Z,99.90
2023-05-03T18:57:35.503Z,99.90
2023-05-03T19:00:06.667Z,99.90
2023-05-03T19:02:34.918Z,99.90
2023-05-03T19:05:03.346Z,99.90
2023-05-03T19:07:32.039Z,99.90
2023-05-03T19:10:01.055Z,99.90
2023-05-03T19:12:29.612Z,99.90
2023-05-03T19:15:00.041Z,99.90
2023-05-03T19:17:29.104Z,99.90
2023-05-03T19:19:58.688Z,99.90
2023-05-03T19:22:27.417Z,99.90
2023-05-03T19:24:55.852Z,99.90
2023-05-03T19:27:24.087Z,99.90
2023-05-03T19:29:56.737Z,99.90
2023-05-03T19:32:26.418Z,99.90
2023-05-03T19:34:54.942Z,99.90
2023-05-03T19:37:23.314Z,99.90
2023-05-03T19:39:51.879Z,99.90
2023-05-03T19:42:20.358Z,99.90
2023-05-03T19:44:48.551Z,99.90
2023-05-03T19:47:16.962Z,99.90
2023-05-03T19:49:46.629Z,99.90
2023-05-03T19:52:18.226Z,99.90
2023-05-03T19:54:46.400Z,99.90
2023-05-03T19:57:14.641Z,99.90
2023-05-03T19:59:43.146Z,99.90
2023-05-03T20:02:11.441Z,99.90
2023-05-03T20:04:39.666Z,99.90
2023-05-03T20:07:09.884Z,99.90
2023-05-03T20:09:41.214Z,99.90
2023-05-03T20:12:10.852Z,99.90
2023-05-03T20:14:39.375Z,99.90
2023-05-03T20:17:07.998Z,99.90
2023-05-03T20:19:36.229Z,99.90
2023-05-03T20:22:04.624Z,99.90
2023-05-03T20:24:34.277Z,99.90
2023-05-03T20:27:02.708Z,99.90
2023-05-03T20:29:30.962Z,99.90
2023-05-03T20:31:59.629Z,99.90
2023-05-03T20:34:28.353Z,99.90
2023-05-03T20:36:56.617Z,99.90
2023-05-03T20:39:25.342Z,99.90
2023-05-03T20:41:55.142Z,99.90
2023-05-03T20:44:23.487Z,99.90
2023-05-03T20:46:51.992Z,99.90
2023-05-03T20:49:20.189Z,99.90
2023-05-03T20:51:48.799Z,99.90
2023-05-03T20:54:17.562Z,99.90
2023-05-03T20:56:45.844Z,99.90
2023-05-03T20:59:17.079Z,99.90
2023-05-03T21:01:46.428Z,99.90
2023-05-03T21:04:15.182Z,99.90
2023-05-03T21:06:45.212Z,99.90
2023-05-03T21:09:13.639Z,99.90
2023-05-03T21:11:42.487Z,99.90
2023-05-03T21:14:11.899Z,99.90
2023-05-03T21:16:41.988Z,99.90
2023-05-03T21:19:10.779Z,99.90
2023-05-03T21:21:39.347Z,99.90
2023-05-03T21:24:08.972Z,99.90
2023-05-03T21:26:37.344Z,99.90
2023-05-03T21:29:06.155Z,99.90
2023-05-03T21:31:34.467Z,99.90
2023-05-03T21:34:04.984Z,99.90
2023-05-03T21:36:33.615Z,99.90
2023-05-03T21:39:02.003Z,99.90
2023-05-03T21:41:30.560Z,99.90
2023-05-03T21:43:59.163Z,99.90
2023-05-03T21:46:27.488Z,99.90
2023-05-03T21:48:55.774Z,99.90
2023-05-03T21:51:25.971Z,99.90
2023-05-03T21:53:54.626Z,99.90
2023-05-03T21:56:22.812Z,99.90
2023-05-03T21:58:51.071Z,99.90
2023-05-03T22:01:21.658Z,99.90
2023-05-03T22:03:50.532Z,99.90
2023-05-03T22:06:19.125Z,99.90
2023-05-03T22:08:49.253Z,99.90
2023-05-03T22:11:21.017Z,99.90
2023-05-03T22:14:05.959Z,99.90
2023-05-03T22:16:36.151Z,99.90
2023-05-03T22:19:05.465Z,99.90
2023-05-03T22:21:35.277Z,99.90
2023-05-03T22:24:07.693Z,99.90
2023-05-03T22:26:37.020Z,99.90
2023-05-03T22:29:06.122Z,99.90
2023-05-03T22:31:34.577Z,99.90
2023-05-03T22:34:03.196Z,99.90
2023-05-03T22:36:31.534Z,99.90
2023-05-03T22:39:05.089Z,99.90
2023-05-03T22:41:35.021Z,99.90
2023-05-03T22:44:03.591Z,99.90
2023-05-03T22:46:31.929Z,99.90
2023-05-03T22:49:00.176Z,99.90
2023-05-03T22:51:28.706Z,99.90
2023-05-03T22:53:57.001Z,99.90
2023-05-03T22:56:28.120Z,99.90
2023-05-03T22:58:58.500Z,99.90
2023-05-03T23:01:27.253Z,99.90
2023-05-03T23:03:55.820Z,99.90
2023-05-03T23:06:25.040Z,99.90
2023-05-03T23:08:53.363Z,99.90
2023-05-03T23:11:22.717Z,99.90
2023-05-03T23:13:51.516Z,99.90
2023-05-03T23:16:21.488Z,99.90
2023-05-03T23:18:49.719Z,99.90
2023-05-03T23:21:18.568Z,99.90
2023-05-03T23:23:47.037Z,99.90
2023-05-03T23:26:15.704Z,99.90
2023-05-03T23:28:44.395Z,99.90
2023-05-03T23:31:13.130Z,99.90
2023-05-03T23:33:43.627Z,99.90
2023-05-03T23:36:12.409Z,99.90
2023-05-03T23:38:40.660Z,99.90
2023-05-03T23:41:08.967Z,99.90
2023-05-03T23:43:37.176Z,99.90
2023-05-03T23:46:05.510Z,99.90
2023-05-03T23:48:33.767Z,99.90
2023-05-03T23:51:03.653Z,99.90
2023-05-03T23:53:32.162Z,99.90
2023-05-03T23:56:00.721Z,99.90
2023-05-03T23:58:29.376Z,99.90
